Time;durP1;ratioP1;P1;durP2;ratioP2;P2;SDS_P1;SDS_P2;PMS_P1;PMS_P2;Temp;Humidity;BMP_temperature;BMP_pressure;BME280_temperature;BME280_humidity;BME280_pressure;Samples;Min_cycle;Max_cycle;Signal;HPM_P1;HPM_P2
2023/09/14 00:01:54;;;;;;;3.63;1.40;;;17.90;99.90;;;;;;4124172;28;20315;-66
2023/09/14 00:03:55;;;;;;;1.63;1.05;;;17.90;99.90;;;;;;4115609;28;20046;-66
2023/09/14 00:05:55;;;;;;;4.18;1.38;;;17.80;99.90;;;;;;4126319;28;20505;-66
2023/09/14 00:07:56;;;;;;;2.70;1.30;;;17.80;99.90;;;;;;4118598;28;20035;-66
2023/09/14 00:09:57;;;;;;;1.48;1.00;;;17.80;99.90;;;;;;4125956;28;20042;-66
2023/09/14 00:11:57;;;;;;;3.40;1.65;;;17.80;99.90;;;;;;4125255;28;20057;-66
2023/09/14 00:13:58;;;;;;;2.03;1.20;;;17.70;99.90;;;;;;4125845;28;20165;-66
2023/09/14 00:15:59;;;;;;;3.45;1.33;;;17.70;99.90;;;;;;4123251;28;20042;-66
2023/09/14 00:17:59;;;;;;;3.50;1.30;;;17.70;99.90;;;;;;4122198;28;20483;-66
2023/09/14 00:20:00;;;;;;;3.17;1.48;;;17.70;99.90;;;;;;4111323;28;20085;-66
2023/09/14 00:22:02;;;;;;;1.88;1.38;;;17.70;99.90;;;;;;4108594;28;20412;-66
2023/09/14 00:24:03;;;;;;;2.65;1.40;;;17.70;99.90;;;;;;4108522;28;20039;-66
2023/09/14 00:26:04;;;;;;;3.27;1.23;;;17.70;99.90;;;;;;4109528;28;20526;-66
2023/09/14 00:28:05;;;;;;;3.05;1.20;;;17.60;99.90;;;;;;4127043;28;20290;-66
2023/09/14 00:30:06;;;;;;;2.67;1.30;;;17.60;99.90;;;;;;4126754;28;20125;-66
2023/09/14 00:32:07;;;;;;;1.25;1.05;;;17.60;99.90;;;;;;4126807;28;20525;-66
2023/09/14 00:34:08;;;;;;;2.78;1.17;;;17.60;99.90;;;;;;4109559;28;20042;-66
2023/09/14 00:36:08;;;;;;;3.38;1.20;;;17.60;99.90;;;;;;4108774;28;20133;-66
2023/09/14 00:38:09;;;;;;;2.92;1.27;;;17.50;99.90;;;;;;4108309;28;20125;-66
2023/09/14 00:40:10;;;;;;;2.63;1.13;;;17.50;99.90;;;;;;4125592;28;20030;-66
2023/09/14 00:42:11;;;;;;;1.75;0.90;;;17.50;99.90;;;;;;4129063;28;20645;-66
2023/09/14 00:44:12;;;;;;;4.85;1.20;;;17.50;99.90;;;;;;4125411;28;20125;-66
2023/09/14 00:46:13;;;;;;;2.40;1.40;;;17.50;99.90;;;;;;4126894;28;20050;-66
2023/09/14 00:48:14;;;;;;;1.90;1.10;;;17.40;99.90;;;;;;4122263;28;20039;-69
2023/09/14 00:50:16;;;;;;;1.85;1.05;;;17.40;99.90;;;;;;4131489;28;20050;-70
2023/09/14 00:52:17;;;;;;;2.35;1.20;;;17.50;99.90;;;;;;4125444;28;20090;-70
2023/09/14 00:54:18;;;;;;;2.22;1.15;;;17.40;99.90;;;;;;4126470;28;20034;-70
2023/09/14 00:56:18;;;;;;;2.60;1.05;;;17.40;99.90;;;;;;4131290;28;20039;-70
2023/09/14 00:58:20;;;;;;;2.40;1.40;;;17.40;99.90;;;;;;4109534;28;20039;-70
2023/09/14 01:00:21;;;;;;;3.17;0.95;;;17.30;99.90;;;;;;4117674;28;20053;-70
2023/09/14 01:02:22;;;;;;;3.58;1.52;;;17.30;99.90;;;;;;4128054;28;20038;-70
2023/09/14 01:04:23;;;;;;;1.95;1.10;;;17.30;99.90;;;;;;4124757;28;20372;-70
2023/09/14 01:06:24;;;;;;;2.13;1.20;;;17.30;99.90;;;;;;4117243;28;20034;-69
2023/09/14 01:08:25;;;;;;;3.10;1.67;;;17.30;99.90;;;;;;4114270;28;20129;-69
2023/09/14 01:10:26;;;;;;;2.03;1.17;;;17.20;99.90;;;;;;4127334;28;20414;-68
2023/09/14 01:12:27;;;;;;;2.63;1.38;;;17.30;99.90;;;;;;4126327;28;20046;-68
2023/09/14 01:14:46;;;;;;;2.75;1.40;;;17.30;99.90;;;;;;4126511;28;20065;-70
2023/09/14 01:17:06;;;;;;;3.05;1.20;;;17.20;99.90;;;;;;4119441;28;20725;-69
2023/09/14 01:19:38;;;;;;;3.92;1.52;;;17.20;99.90;;;;;;4128943;28;20046;-70
2023/09/14 01:21:48;;;;;;;2.65;1.27;;;17.20;99.90;;;;;;4125391;28;20034;-70
2023/09/14 01:24:23;;;;;;;3.47;1.30;;;17.20;99.90;;;;;;4125441;28;20034;-69
2023/09/14 01:26:24;;;;;;;4.60;1.55;;;17.20;99.90;;;;;;4120477;28;20045;-70
2023/09/14 01:28:25;;;;;;;2.90;1.30;;;17.20;99.90;;;;;;4125303;28;20114;-70
2023/09/14 01:30:25;;;;;;;2.55;1.25;;;17.20;99.90;;;;;;4125431;28;20038;-69
2023/09/14 01:32:27;;;;;;;3.85;1.50;;;17.20;99.90;;;;;;4118427;28;20041;-68
2023/09/14 01:34:27;;;;;;;1.92;1.20;;;17.20;99.90;;;;;;4125669;28;20038;-68
2023/09/14 01:36:46;;;;;;;2.78;1.45;;;17.10;99.90;;;;;;4125129;28;20073;-68
2023/09/14 01:38:48;;;;;;;2.35;1.27;;;17.10;99.90;;;;;;4127285;28;20050;-69
2023/09/14 01:40:51;;;;;;;2.90;1.35;;;17.10;99.90;;;;;;4129701;28;20058;-69
2023/09/14 01:42:53;;;;;;;1.85;1.20;;;17.10;99.90;;;;;;4121429;28;20050;-69
2023/09/14 01:44:54;;;;;;;;;;;17.10;99.90;;;;;;4126074;28;20113;-70
2023/09/14 01:46:55;;;;;;;1.73;1.17;;;17.10;99.90;;;;;;4123107;28;20370;-70
2023/09/14 01:48:56;;;;;;;2.40;1.23;;;17.10;99.90;;;;;;4126914;28;20076;-68
2023/09/14 01:50:56;;;;;;;4.35;1.38;;;17.00;99.90;;;;;;4129034;28;20058;-69
2023/09/14 01:52:58;;;;;;;2.50;1.60;;;17.00;99.90;;;;;;4123905;28;20048;-69
2023/09/14 01:54:58;;;;;;;2.40;1.52;;;17.00;99.90;;;;;;4127628;28;20130;-69
2023/09/14 01:56:59;;;;;;;2.05;1.25;;;17.00;99.90;;;;;;4129094;28;20088;-69
2023/09/14 01:59:00;;;;;;;3.13;1.52;;;16.90;99.90;;;;;;4127017;28;20110;-66
2023/09/14 02:01:00;;;;;;;1.95;1.30;;;16.90;99.90;;;;;;4126212;28;20066;-65
2023/09/14 02:03:01;;;;;;;2.45;1.20;;;16.90;99.90;;;;;;4106392;28;20599;-66
2023/09/14 02:05:02;;;;;;;3.20;1.40;;;16.90;99.90;;;;;;4109002;28;20027;-66
2023/09/14 02:07:03;;;;;;;3.25;1.48;;;16.90;99.90;;;;;;4109558;28;20038;-66
2023/09/14 02:09:04;;;;;;;2.67;1.35;;;16.90;99.90;;;;;;4142461;28;20041;-66
2023/09/14 02:11:05;;;;;;;2.85;1.30;;;16.90;99.90;;;;;;4108509;28;20050;-66
2023/09/14 02:13:05;;;;;;;3.38;1.20;;;16.80;99.90;;;;;;4119783;28;20494;-66
2023/09/14 02:15:10;;;;;;;1.73;1.23;;;16.90;99.90;;;;;;4125381;28;20102;-66
2023/09/14 02:17:10;;;;;;;3.83;1.38;;;16.80;99.90;;;;;;4121959;28;20062;-66
2023/09/14 02:19:11;;;;;;;3.50;1.58;;;16.80;99.90;;;;;;4118355;28;20097;-66
2023/09/14 02:21:12;;;;;;;3.17;1.08;;;16.80;99.90;;;;;;4127460;28;20038;-66
2023/09/14 02:23:15;;;;;;;1.10;0.95;;;16.70;99.90;;;;;;4126149;28;20427;-66
2023/09/14 02:25:16;;;;;;;1.85;1.20;;;16.80;99.90;;;;;;4123660;28;20035;-66
2023/09/14 02:27:16;;;;;;;2.65;1.35;;;16.70;99.90;;;;;;4110469;28;24938;-66
2023/09/14 02:29:17;;;;;;;4.63;1.38;;;16.70;99.90;;;;;;4113469;28;20038;-66
2023/09/14 02:31:19;;;;;;;2.05;1.40;;;16.70;99.90;;;;;;4110768;28;20029;-66
2023/09/14 02:33:19;;;;;;;2.35;0.90;;;16.70;99.90;;;;;;4124333;28;20050;-66
2023/09/14 02:35:20;;;;;;;2.60;1.30;;;16.70;99.90;;;;;;4126870;28;20046;-66
2023/09/14 02:37:20;;;;;;;3.15;1.23;;;16.60;99.90;;;;;;4128378;28;20441;-66
2023/09/14 02:39:21;;;;;;;1.90;1.30;;;16.60;99.90;;;;;;4128203;28;20529;-66
2023/09/14 02:41:22;;;;;;;2.85;1.50;;;16.60;99.90;;;;;;4126323;28;20042;-66
2023/09/14 02:43:22;;;;;;;3.47;1.38;;;16.60;99.90;;;;;;4124123;28;20058;-66
2023/09/14 02:45:23;;;;;;;2.38;1.70;;;16.60;99.90;;;;;;4127584;28;20042;-66
2023/09/14 02:47:24;;;;;;;1.73;1.00;;;16.60;99.90;;;;;;4126513;28;20045;-66
2023/09/14 02:49:24;;;;;;;1.50;1.05;;;16.60;99.90;;;;;;4128281;28;20034;-66
2023/09/14 02:51:25;;;;;;;2.13;1.23;;;16.60;99.90;;;;;;4128498;28;20041;-66
2023/09/14 02:53:26;;;;;;;2.63;1.30;;;16.60;99.90;;;;;;4127184;28;20062;-66
2023/09/14 02:55:27;;;;;;;3.42;1.27;;;16.60;99.90;;;;;;4126306;28;20030;-66
2023/09/14 02:57:28;;;;;;;1.63;1.05;;;16.60;99.90;;;;;;4128459;28;20058;-66
2023/09/14 02:59:28;;;;;;;5.93;1.38;;;16.60;99.90;;;;;;4129001;28;20034;-66
2023/09/14 03:01:29;;;;;;;2.83;1.33;;;16.60;99.90;;;;;;4133603;28;20042;-67
2023/09/14 03:03:29;;;;;;;1.42;1.00;;;16.60;99.90;;;;;;4123404;28;20380;-66
2023/09/14 03:05:30;;;;;;;1.83;1.20;;;16.60;99.90;;;;;;4127398;28;20042;-66
2023/09/14 03:07:30;;;;;;;1.35;1.10;;;16.50;99.90;;;;;;4125378;28;20038;-66
2023/09/14 03:09:31;;;;;;;3.45;1.48;;;16.50;99.90;;;;;;4129880;28;20055;-66
2023/09/14 03:11:32;;;;;;;3.75;1.70;;;16.50;99.90;;;;;;4128893;28;20470;-66
2023/09/14 03:13:32;;;;;;;2.10;1.25;;;16.50;99.90;;;;;;4124717;28;20076;-66
2023/09/14 03:15:34;;;;;;;2.42;1.40;;;16.50;99.90;;;;;;4126906;28;20077;-66
2023/09/14 03:17:35;;;;;;;2.50;1.40;;;16.50;99.90;;;;;;4127854;28;20109;-66
2023/09/14 03:19:35;;;;;;;1.20;0.98;;;16.50;99.90;;;;;;4134631;28;20038;-66
2023/09/14 03:21:36;;;;;;;2.63;1.30;;;16.50;99.90;;;;;;4130823;28;20376;-66
2023/09/14 03:23:37;;;;;;;2.40;1.27;;;16.50;99.90;;;;;;4127676;28;20030;-66
2023/09/14 03:25:37;;;;;;;1.42;1.20;;;16.50;99.90;;;;;;4125954;28;20030;-66
2023/09/14 03:27:38;;;;;;;2.20;1.40;;;16.50;99.90;;;;;;4128197;28;20035;-66
2023/09/14 03:29:39;;;;;;;3.20;1.60;;;16.50;99.90;;;;;;4132611;28;20037;-66
2023/09/14 03:31:39;;;;;;;2.67;1.30;;;16.50;99.90;;;;;;4128071;28;20038;-66
2023/09/14 03:33:40;;;;;;;1.30;0.90;;;16.50;99.90;;;;;;4127053;28;20042;-66
2023/09/14 03:35:41;;;;;;;3.13;1.40;;;16.50;99.90;;;;;;4126307;28;20126;-66
2023/09/14 03:37:42;;;;;;;1.42;0.95;;;16.50;99.90;;;;;;4116369;28;20049;-66
2023/09/14 03:39:45;;;;;;;2.40;1.45;;;16.40;99.90;;;;;;4128105;28;20112;-66
2023/09/14 03:41:48;;;;;;;2.40;1.20;;;16.40;99.90;;;;;;4132547;28;20093;-66
2023/09/14 03:43:49;;;;;;;2.08;1.27;;;16.40;99.90;;;;;;4127679;28;20039;-66
2023/09/14 03:45:50;;;;;;;1.98;1.42;;;16.40;99.90;;;;;;4125248;28;20139;-66
2023/09/14 03:47:51;;;;;;;3.33;1.30;;;16.40;99.90;;;;;;4132232;28;20066;-66
2023/09/14 03:49:52;;;;;;;1.90;1.40;;;16.30;99.90;;;;;;4112188;28;20052;-65
2023/09/14 03:51:52;;;;;;;2.95;1.20;;;16.30;99.90;;;;;;4128440;28;20046;-66
2023/09/14 03:53:53;;;;;;;1.95;1.05;;;16.30;99.90;;;;;;4120001;28;20092;-65
2023/09/14 03:55:54;;;;;;;1.70;0.85;;;16.30;99.90;;;;;;4126193;28;20513;-65
2023/09/14 03:57:55;;;;;;;2.53;1.40;;;16.30;99.90;;;;;;4124031;28;20027;-66
2023/09/14 03:59:56;;;;;;;2.58;1.10;;;16.30;99.90;;;;;;4130381;28;20060;-66
2023/09/14 04:01:57;;;;;;;2.00;1.02;;;16.30;99.90;;;;;;4128268;28;20406;-67
2023/09/14 04:03:58;;;;;;;1.48;0.88;;;16.20;99.90;;;;;;4126821;28;20038;-66
2023/09/14 04:05:59;;;;;;;1.88;1.05;;;16.30;99.90;;;;;;4125707;28;20146;-66
2023/09/14 04:07:59;;;;;;;2.17;1.20;;;16.20;99.90;;;;;;4122192;28;20066;-66
2023/09/14 04:10:02;;;;;;;1.45;1.05;;;16.20;99.90;;;;;;4130685;28;20054;-67
2023/09/14 04:12:04;;;;;;;1.90;1.02;;;16.20;99.90;;;;;;4115551;28;20027;-66
2023/09/14 04:14:04;;;;;;;2.72;1.10;;;16.30;99.90;;;;;;4126842;28;20045;-66
2023/09/14 04:16:05;;;;;;;4.35;1.42;;;16.20;99.90;;;;;;4120878;28;20078;-65
2023/09/14 04:18:06;;;;;;;2.08;1.20;;;16.20;99.90;;;;;;4130378;28;20126;-66
2023/09/14 04:20:10;;;;;;;1.92;1.38;;;16.20;99.90;;;;;;4123981;28;20487;-70
2023/09/14 04:22:11;;;;;;;3.38;1.85;;;16.20;99.90;;;;;;4125702;28;20049;-69
2023/09/14 04:24:12;;;;;;;2.08;1.48;;;16.30;99.90;;;;;;4126477;28;20035;-69
2023/09/14 04:26:13;;;;;;;4.75;1.40;;;16.20;99.90;;;;;;4126171;28;20113;-70
2023/09/14 04:28:14;;;;;;;1.88;1.13;;;16.20;99.90;;;;;;4130171;28;20042;-69
2023/09/14 04:30:15;;;;;;;2.42;1.00;;;16.30;99.90;;;;;;4127887;28;20108;-70
2023/09/14 04:32:16;;;;;;;2.53;1.50;;;16.30;99.90;;;;;;4129119;28;20027;-69
2023/09/14 04:34:16;;;;;;;1.73;0.95;;;16.30;99.90;;;;;;4127218;28;20030;-70
2023/09/14 04:36:17;;;;;;;2.53;1.65;;;16.30;99.90;;;;;;4121728;28;20058;-70
2023/09/14 04:38:18;;;;;;;3.15;1.38;;;16.30;99.90;;;;;;4125782;28;20073;-69
2023/09/14 04:40:18;;;;;;;4.93;1.70;;;16.30;99.90;;;;;;4127507;28;20092;-69
2023/09/14 04:42:19;;;;;;;4.30;1.13;;;16.30;99.90;;;;;;4127082;28;20479;-69
2023/09/14 04:44:19;;;;;;;3.13;1.30;;;16.30;99.90;;;;;;4135378;28;20120;-69
2023/09/14 04:46:20;;;;;;;1.95;1.10;;;16.30;99.90;;;;;;4124579;28;20042;-69
2023/09/14 04:48:20;;;;;;;2.42;1.20;;;16.40;99.90;;;;;;4119166;28;20534;-70
2023/09/14 04:50:21;;;;;;;2.42;1.17;;;16.30;99.90;;;;;;4132360;28;20046;-70
2023/09/14 04:52:22;;;;;;;1.48;1.10;;;16.30;99.90;;;;;;4128358;28;20040;-69
2023/09/14 04:54:22;;;;;;;2.28;1.40;;;16.30;99.90;;;;;;4124287;28;20088;-70
2023/09/14 04:56:23;;;;;;;2.90;1.40;;;16.30;99.90;;;;;;4125059;28;20042;-69
2023/09/14 04:58:24;;;;;;;2.25;1.33;;;16.30;99.90;;;;;;4125648;28;20390;-70
2023/09/14 05:00:24;;;;;;;2.08;1.30;;;16.30;99.90;;;;;;4125810;28;20073;-69
2023/09/14 05:02:25;;;;;;;2.90;1.40;;;16.30;99.90;;;;;;4126257;28;20550;-70
2023/09/14 05:04:25;;;;;;;2.30;1.35;;;16.30;99.90;;;;;;4129384;28;20038;-69
2023/09/14 05:06:26;;;;;;;3.38;1.20;;;16.30;99.90;;;;;;4128165;28;20034;-68
2023/09/14 05:08:27;;;;;;;1.83;1.13;;;16.30;99.90;;;;;;4122627;28;20510;-68
2023/09/14 05:10:28;;;;;;;3.70;1.38;;;16.30;99.90;;;;;;4126772;28;20062;-67
2023/09/14 05:12:28;;;;;;;1.80;1.30;;;16.30;99.90;;;;;;4126132;28;20031;-68
2023/09/14 05:14:29;;;;;;;2.42;1.52;;;16.30;99.90;;;;;;4127229;28;20034;-68
2023/09/14 05:16:30;;;;;;;1.92;1.30;;;16.30;99.90;;;;;;4123614;28;20566;-68
2023/09/14 05:18:30;;;;;;;3.63;1.45;;;16.30;99.90;;;;;;4125883;28;20479;-68
2023/09/14 05:20:31;;;;;;;4.22;1.70;;;16.20;99.90;;;;;;4125304;28;20035;-69
2023/09/14 05:22:32;;;;;;;1.80;1.10;;;16.30;99.90;;;;;;4107607;28;20038;-69
2023/09/14 05:24:32;;;;;;;3.10;1.00;;;16.30;99.90;;;;;;4110033;28;20122;-69
2023/09/14 05:26:33;;;;;;;1.58;1.02;;;16.30;99.90;;;;;;4117530;28;20035;-70
2023/09/14 05:28:33;;;;;;;1.65;1.10;;;16.30;99.90;;;;;;4124954;28;20471;-69
2023/09/14 05:30:35;;;;;;;1.98;1.17;;;16.30;99.90;;;;;;4127015;28;20035;-66
2023/09/14 05:32:36;;;;;;;1.80;1.23;;;16.20;99.90;;;;;;4121626;28;20534;-66
2023/09/14 05:34:37;;;;;;;2.13;1.25;;;16.20;99.90;;;;;;4120410;28;20061;-63
2023/09/14 05:36:37;;;;;;;2.55;1.63;;;16.30;99.90;;;;;;4124393;28;20046;-67
2023/09/14 05:38:38;;;;;;;2.80;1.40;;;16.30;99.90;;;;;;4123816;28;20425;-67
2023/09/14 05:40:39;;;;;;;2.47;1.33;;;16.30;99.90;;;;;;4122168;28;20081;-67
2023/09/14 05:42:39;;;;;;;3.53;1.55;;;16.30;99.90;;;;;;4117883;28;20039;-67
2023/09/14 05:44:40;;;;;;;1.95;1.30;;;16.30;99.90;;;;;;4116546;28;20066;-67
2023/09/14 05:46:40;;;;;;;1.30;1.20;;;16.30;99.90;;;;;;4123077;28;20034;-67
2023/09/14 05:48:42;;;;;;;2.85;1.55;;;16.30;99.90;;;;;;4126512;28;20133;-67
2023/09/14 05:50:43;;;;;;;2.05;1.30;;;16.30;99.90;;;;;;4128400;28;20053;-67
2023/09/14 05:52:43;;;;;;;3.10;1.58;;;16.30;99.90;;;;;;4127397;28;20042;-67
2023/09/14 05:54:44;;;;;;;1.90;1.25;;;16.30;99.90;;;;;;4117846;28;20034;-67
2023/09/14 05:56:44;;;;;;;2.10;1.48;;;16.40;99.90;;;;;;4121167;28;20125;-67
2023/09/14 05:58:45;;;;;;;1.63;1.02;;;16.30;99.90;;;;;;4126885;28;20030;-67
2023/09/14 06:00:46;;;;;;;2.33;1.35;;;16.40;99.90;;;;;;4122522;28;20077;-67
2023/09/14 06:02:47;;;;;;;2.30;1.20;;;16.40;99.90;;;;;;4122416;28;20065;-66
2023/09/14 06:04:48;;;;;;;2.25;1.25;;;16.30;99.90;;;;;;4121503;28;20677;-67
2023/09/14 06:06:49;;;;;;;2.35;1.50;;;16.30;99.90;;;;;;4118640;28;21755;-67
2023/09/14 06:08:50;;;;;;;2.50;1.30;;;16.30;99.90;;;;;;4123375;28;20040;-67
2023/09/14 06:10:50;;;;;;;2.03;1.40;;;16.30;99.90;;;;;;4119479;28;20039;-67
2023/09/14 06:12:51;;;;;;;2.53;1.40;;;16.40;99.90;;;;;;4127744;28;20033;-67
2023/09/14 06:14:51;;;;;;;2.25;1.33;;;16.30;99.90;;;;;;4124250;28;20121;-67
2023/09/14 06:16:53;;;;;;;4.18;1.67;;;16.40;99.90;;;;;;4108491;28;20070;-67
2023/09/14 06:18:53;;;;;;;2.25;1.40;;;16.40;99.90;;;;;;4108806;28;20483;-67
2023/09/14 06:20:54;;;;;;;3.28;1.95;;;16.40;99.90;;;;;;4118594;28;20052;-67
2023/09/14 06:22:55;;;;;;;2.85;1.42;;;16.40;99.90;;;;;;4124913;28;20530;-67
2023/09/14 06:24:55;;;;;;;2.28;1.60;;;16.40;99.90;;;;;;4125741;28;20030;-67
2023/09/14 06:26:56;;;;;;;5.88;1.63;;;16.40;99.90;;;;;;4124653;28;20402;-67
2023/09/14 06:28:57;;;;;;;2.15;1.35;;;16.50;99.90;;;;;;4125685;28;20073;-67
2023/09/14 06:30:59;;;;;;;5.75;1.77;;;16.50;99.90;;;;;;4119887;28;20045;-67
2023/09/14 06:32:59;;;;;;;2.25;1.55;;;16.50;99.90;;;;;;4125325;28;20046;-68
2023/09/14 06:35:00;;;;;;;2.90;1.50;;;16.60;99.90;;;;;;4124444;28;20035;-67
2023/09/14 06:37:00;;;;;;;2.50;1.70;;;16.70;99.90;;;;;;4124983;28;20133;-67
2023/09/14 06:39:01;;;;;;;5.53;1.65;;;16.70;99.90;;;;;;4124949;28;20044;-67
2023/09/14 06:41:02;;;;;;;4.07;1.85;;;16.80;99.90;;;;;;4122689;28;20033;-67
2023/09/14 06:43:03;;;;;;;2.90;1.60;;;16.90;99.90;;;;;;4122669;28;20034;-67
2023/09/14 06:45:06;;;;;;;4.75;1.60;;;17.00;99.90;;;;;;4123696;28;21133;-67
2023/09/14 06:47:06;;;;;;;2.90;1.65;;;17.00;99.90;;;;;;4121507;28;20173;-67
2023/09/14 06:49:07;;;;;;;2.58;1.60;;;17.00;99.90;;;;;;4121885;28;20026;-67
2023/09/14 06:51:08;;;;;;;3.42;1.70;;;17.10;99.90;;;;;;4123431;28;20475;-67
2023/09/14 06:53:10;;;;;;;2.45;1.70;;;17.10;99.90;;;;;;4123548;28;20130;-67
2023/09/14 06:55:10;;;;;;;3.10;1.90;;;17.20;99.90;;;;;;4125008;28;20511;-67
2023/09/14 06:57:11;;;;;;;4.05;1.60;;;17.20;99.90;;;;;;4125349;28;20038;-67
2023/09/14 06:59:12;;;;;;;3.78;1.92;;;17.30;99.90;;;;;;4122433;28;20395;-67
2023/09/14 07:01:12;;;;;;;2.60;1.80;;;17.30;99.90;;;;;;4129620;28;20045;-67
2023/09/14 07:03:13;;;;;;;3.38;1.70;;;17.30;99.90;;;;;;4127536;28;20046;-67
2023/09/14 07:05:14;;;;;;;3.85;2.08;;;17.40;99.90;;;;;;4127353;28;20113;-67
2023/09/14 07:07:14;;;;;;;3.22;1.90;;;17.50;99.90;;;;;;4128471;28;20038;-67
2023/09/14 07:09:15;;;;;;;2.72;1.85;;;17.70;99.90;;;;;;4127984;28;20031;-67
2023/09/14 07:11:16;;;;;;;4.72;1.80;;;17.90;99.90;;;;;;4118307;28;20104;-67
2023/09/14 07:13:17;;;;;;;3.13;2.30;;;18.10;99.90;;;;;;4122773;28;20062;-67
2023/09/14 07:15:18;;;;;;;3.35;2.00;;;18.30;99.90;;;;;;4120253;28;20130;-67
2023/09/14 07:17:19;;;;;;;4.72;2.05;;;18.60;99.90;;;;;;4125174;28;20066;-66
2023/09/14 07:19:19;;;;;;;4.07;2.05;;;18.80;99.90;;;;;;4120238;28;20092;-67
2023/09/14 07:21:20;;;;;;;3.70;1.98;;;19.10;99.90;;;;;;4123948;28;20476;-67
2023/09/14 07:23:20;;;;;;;4.50;2.33;;;19.30;99.90;;;;;;4121597;28;20046;-66
2023/09/14 07:25:21;;;;;;;3.67;2.22;;;19.60;99.90;;;;;;4120400;28;20078;-67
2023/09/14 07:27:22;;;;;;;6.35;2.90;;;19.90;99.90;;;;;;4124172;28;20062;-67
2023/09/14 07:29:23;;;;;;;10.23;3.50;;;20.10;99.90;;;;;;4125220;28;20042;-67
2023/09/14 07:31:24;;;;;;;5.28;2.95;;;20.30;99.90;;;;;;4125899;28;20497;-67
2023/09/14 07:33:25;;;;;;;5.40;2.55;;;20.50;99.90;;;;;;4127976;28;20035;-67
2023/09/14 07:35:26;;;;;;;5.82;2.28;;;20.70;99.90;;;;;;4121850;28;20058;-67
2023/09/14 07:37:27;;;;;;;5.25;2.80;;;21.00;99.90;;;;;;4122374;28;20046;-67
2023/09/14 07:39:27;;;;;;;7.18;3.35;;;21.30;99.90;;;;;;4122581;28;20074;-67
2023/09/14 07:41:28;;;;;;;7.07;3.47;;;21.60;99.90;;;;;;4124523;28;20026;-66
2023/09/14 07:43:29;;;;;;;3.53;2.70;;;21.70;99.90;;;;;;4123374;28;20050;-66
2023/09/14 07:45:33;;;;;;;4.60;2.80;;;21.80;99.90;;;;;;4121901;28;20038;-66
2023/09/14 07:47:33;;;;;;;5.45;3.00;;;21.90;99.90;;;;;;4125056;28;20038;-66
2023/09/14 07:49:34;;;;;;;4.60;3.00;;;22.00;99.90;;;;;;4125927;28;20049;-69
2023/09/14 07:51:35;;;;;;;4.28;2.70;;;22.00;99.90;;;;;;4124297;28;20038;-69
2023/09/14 07:53:35;;;;;;;4.90;2.95;;;22.10;99.90;;;;;;4124009;28;20038;-70
2023/09/14 07:55:36;;;;;;;5.80;3.08;;;22.10;99.90;;;;;;4122044;28;20042;-70
2023/09/14 07:57:37;;;;;;;5.18;2.80;;;22.10;99.90;;;;;;4124299;28;20049;-69
2023/09/14 07:59:38;;;;;;;5.43;3.20;;;22.20;99.90;;;;;;4104493;28;20045;-67
2023/09/14 08:01:38;;;;;;;7.07;2.95;;;22.10;99.90;;;;;;4122019;28;20128;-68
2023/09/14 08:03:39;;;;;;;6.88;2.80;;;22.20;99.90;;;;;;4124225;28;20039;-67
2023/09/14 08:05:40;;;;;;;4.30;2.60;;;22.20;99.90;;;;;;4123975;28;20039;-67
2023/09/14 08:07:41;;;;;;;4.85;2.53;;;22.30;99.90;;;;;;4119840;28;20038;-68
2023/09/14 08:09:44;;;;;;;5.47;2.17;;;22.40;99.90;;;;;;4124361;28;20047;-62
2023/09/14 08:11:45;;;;;;;5.68;2.80;;;22.40;99.90;;;;;;4121841;28;20514;-62
2023/09/14 08:13:45;;;;;;;6.57;3.13;;;22.40;99.90;;;;;;4121718;28;20050;-62
2023/09/14 08:15:46;;;;;;;7.05;3.25;;;22.50;99.90;;;;;;4120751;28;20467;-61
2023/09/14 08:17:46;;;;;;;5.55;2.70;;;22.30;99.90;;;;;;4107496;28;20038;-61
2023/09/14 08:19:47;;;;;;;5.22;3.00;;;22.30;99.90;;;;;;4107982;28;20498;-62
2023/09/14 08:21:48;;;;;;;4.68;2.72;;;22.30;99.90;;;;;;4108361;28;20041;-62
2023/09/14 08:23:49;;;;;;;4.53;2.50;;;22.20;99.90;;;;;;4121874;28;20030;-62
2023/09/14 08:25:49;;;;;;;4.80;2.63;;;22.20;99.90;;;;;;4123548;28;20038;-62
2023/09/14 08:27:50;;;;;;;4.63;2.45;;;22.20;99.90;;;;;;4136099;28;20042;-62
2023/09/14 08:29:51;;;;;;;2.88;2.40;;;22.30;99.90;;;;;;4121280;28;20058;-62
2023/09/14 08:31:51;;;;;;;3.72;2.50;;;22.30;99.90;;;;;;4122619;28;20109;-62
2023/09/14 08:33:52;;;;;;;4.78;2.70;;;22.30;99.90;;;;;;4121795;28;20038;-62
2023/09/14 08:35:53;;;;;;;4.28;2.97;;;22.30;99.90;;;;;;4123045;28;20406;-62
2023/09/14 08:37:54;;;;;;;3.05;2.13;;;22.40;99.90;;;;;;4124793;28;20398;-62
2023/09/14 08:39:55;;;;;;;3.05;2.17;;;22.50;99.90;;;;;;4122880;28;20671;-62
2023/09/14 08:41:55;;;;;;;3.25;2.33;;;22.50;99.90;;;;;;4122630;28;20089;-62
2023/09/14 08:43:57;;;;;;;3.65;2.35;;;22.40;99.90;;;;;;4125384;28;20034;-62
2023/09/14 08:45:59;;;;;;;4.63;2.20;;;22.30;99.90;;;;;;4119811;28;20045;-62
2023/09/14 08:48:02;;;;;;;6.15;2.67;;;22.30;99.90;;;;;;4125159;28;20410;-62
2023/09/14 08:50:03;;;;;;;;;;;22.20;99.90;;;;;;4125475;28;20049;-62
2023/09/14 08:52:05;;;;;;;4.05;2.38;;;22.20;99.90;;;;;;4121954;28;20418;-63
2023/09/14 08:54:05;;;;;;;2.60;1.77;;;22.20;99.90;;;;;;4123053;28;20058;-62
2023/09/14 08:56:08;;;;;;;4.53;1.98;;;22.30;99.90;;;;;;4121620;28;20046;-62
2023/09/14 08:58:10;;;;;;;3.08;2.10;;;22.30;99.90;;;;;;4121513;28;20038;-62
2023/09/14 09:00:15;;;;;;;4.25;2.20;;;22.40;99.90;;;;;;4121698;28;20049;-62
2023/09/14 09:02:18;;;;;;;3.70;2.00;;;22.40;99.90;;;;;;4124028;28;20062;-62
2023/09/14 09:04:19;;;;;;;3.55;2.35;;;22.40;99.90;;;;;;4124531;28;20446;-62
2023/09/14 09:06:22;;;;;;;6.05;3.10;;;22.50;99.90;;;;;;4121207;28;20038;-62
2023/09/14 09:08:24;;;;;;;3.47;2.55;;;22.50;99.90;;;;;;4122470;28;20426;-62
2023/09/14 09:10:29;;;;;;;;;;;22.40;99.90;;;;;;4121406;28;20049;-62
2023/09/14 09:12:30;;;;;;;4.40;2.17;;;22.50;99.90;;;;;;4122716;28;19917;-62
2023/09/14 09:14:31;;;;;;;4.15;2.35;;;22.50;99.90;;;;;;4122349;28;20135;-62
2023/09/14 09:16:32;;;;;;;6.47;2.90;;;22.50;99.90;;;;;;4120814;28;20056;-64
2023/09/14 09:18:35;;;;;;;4.47;2.55;;;22.40;99.90;;;;;;4123978;28;20130;-68
2023/09/14 09:20:39;;;;;;;4.75;2.65;;;22.50;99.90;;;;;;4120322;28;20053;-70
2023/09/14 09:22:43;;;;;;;3.38;2.30;;;22.40;99.90;;;;;;4122851;28;20115;-71
2023/09/14 09:24:44;;;;;;;3.35;2.47;;;22.40;99.90;;;;;;4122101;28;20801;-71
2023/09/14 09:26:45;;;;;;;3.88;2.40;;;22.30;99.90;;;;;;4123176;28;20034;-70
2023/09/14 09:28:47;;;;;;;4.00;2.40;;;22.30;99.90;;;;;;4121214;28;20034;-71
2023/09/14 09:30:53;;;;;;;4.35;2.50;;;22.30;99.90;;;;;;4118480;28;20034;-71
2023/09/14 09:32:55;;;;;;;4.25;2.60;;;22.30;99.90;;;;;;4124141;28;20041;-70
2023/09/14 09:35:01;;;;;;;5.50;3.30;;;22.20;99.90;;;;;;4121523;28;20192;-70
2023/09/14 09:37:03;;;;;;;4.15;2.53;;;21.90;99.90;;;;;;4122132;28;20139;-71
2023/09/14 09:39:05;;;;;;;4.85;2.70;;;22.00;99.90;;;;;;4122624;28;20035;-71
2023/09/14 09:41:13;;;;;;;5.43;3.00;;;22.00;99.90;;;;;;4121498;28;20046;-69
2023/09/14 09:43:18;;;;;;;4.75;2.80;;;21.80;99.90;;;;;;4121461;28;20046;-70
2023/09/14 09:45:20;;;;;;;4.55;2.70;;;21.70;99.90;;;;;;4121702;28;20034;-70
2023/09/14 09:47:21;;;;;;;4.10;2.77;;;21.80;99.90;;;;;;4122011;28;20052;-70
2023/09/14 09:49:22;;;;;;;4.60;2.55;;;21.90;99.90;;;;;;4122973;28;20047;-70
2023/09/14 09:51:25;;;;;;;6.18;3.65;;;21.80;99.90;;;;;;4119933;28;20039;-70
2023/09/14 09:53:26;;;;;;;;;;;21.80;99.90;;;;;;4122101;28;20356;-70
2023/09/14 09:55:30;;;;;;;5.97;3.20;;;21.80;99.90;;;;;;4121482;28;19920;-70
2023/09/14 09:57:37;;;;;;;8.13;3.65;;;21.80;99.90;;;;;;4119522;28;20050;-71
2023/09/14 09:59:40;;;;;;;5.03;2.90;;;21.80;99.90;;;;;;4121027;28;20038;-71
2023/09/14 10:01:44;;;;;;;5.15;2.65;;;21.80;99.90;;;;;;4120974;28;20097;-71
2023/09/14 10:03:47;;;;;;;3.97;3.00;;;21.80;99.90;;;;;;4124357;28;21186;-71
2023/09/14 10:05:48;;;;;;;3.85;2.03;;;21.80;99.90;;;;;;4123090;28;20127;-71
2023/09/14 10:07:48;;;;;;;3.92;2.35;;;21.80;99.90;;;;;;4122562;28;20050;-71
2023/09/14 10:09:55;;;;;;;4.05;2.30;;;21.80;99.90;;;;;;4122226;28;20047;-71
2023/09/14 10:12:02;;;;;;;3.92;2.20;;;21.90;99.90;;;;;;4119744;28;20038;-71
2023/09/14 10:14:04;;;;;;;2.88;1.80;;;22.00;99.90;;;;;;4117444;28;20521;-71
2023/09/14 10:16:05;;;;;;;2.45;1.67;;;22.10;99.90;;;;;;4121892;28;20054;-71
2023/09/14 10:18:06;;;;;;;2.50;1.70;;;22.20;99.90;;;;;;4124342;28;20089;-71
2023/09/14 10:20:08;;;;;;;3.92;1.83;;;22.20;99.90;;;;;;4122606;28;20053;-70
2023/09/14 10:22:10;;;;;;;2.10;1.55;;;22.30;99.90;;;;;;4123697;28;20054;-71
2023/09/14 10:24:13;;;;;;;3.38;1.52;;;22.40;99.90;;;;;;4123461;28;20073;-71
2023/09/14 10:26:14;;;;;;;2.97;2.00;;;22.40;99.90;;;;;;4120711;28;20035;-72
2023/09/14 10:28:15;;;;;;;4.00;2.22;;;22.50;99.90;;;;;;4123603;28;20049;-72
2023/09/14 10:30:18;;;;;;;4.35;2.13;;;22.30;99.90;;;;;;4108665;28;20451;-71
2023/09/14 10:32:21;;;;;;;5.32;1.98;;;22.30;99.90;;;;;;4108180;28;20480;-71
2023/09/14 10:34:22;;;;;;;3.33;1.92;;;22.30;99.90;;;;;;4106389;28;20039;-71